Time;durP1;ratioP1;P1;durP2;ratioP2;P2;SDS_P1;SDS_P2;PMS_P1;PMS_P2;Temp;Humidity;BMP_temperature;BMP_pressure;BME280_temperature;BME280_humidity;BME280_pressure;Samples;Min_cycle;Max_cycle;Signal;HPM_P1;HPM_P2
2022/10/30 00:00:20;;;;;;;25.17;15.38;;;;;;;4.82;62.74;94220.22;5090478;28;20035;-34
2022/10/30 00:02:48;;;;;;;23.73;13.73;;;;;;;4.73;63.24;94219.69;5084548;28;20486;-34
2022/10/30 00:05:14;;;;;;;27.70;14.35;;;;;;;4.89;62.88;94217.03;5083134;28;20024;-34
2022/10/30 00:07:40;;;;;;;22.52;12.35;;;;;;;5.03;62.06;94213.31;5086992;28;20038;-34
2022/10/30 00:10:06;;;;;;;21.13;14.45;;;;;;;5.06;60.78;94214.31;5077205;28;20024;-35
2022/10/30 00:12:31;;;;;;;25.90;16.15;;;;;;;5.09;61.08;94207.88;5085282;28;20039;-34
2022/10/30 00:14:57;;;;;;;29.25;17.00;;;;;;;4.94;61.54;94216.28;5086061;28;20615;-34
2022/10/30 00:17:22;;;;;;;36.35;19.42;;;;;;;4.86;62.27;94223.47;5081274;28;20028;-34
2022/10/30 00:19:48;;;;;;;29.52;16.73;;;;;;;4.83;61.94;94224.44;5082897;28;20034;-34
2022/10/30 00:22:13;;;;;;;23.85;13.45;;;;;;;4.46;62.19;94204.69;5088899;28;20024;-34
2022/10/30 00:24:39;;;;;;;21.02;10.98;;;;;;;4.71;61.47;94225.66;5085937;28;20024;-34
2022/10/30 00:27:04;;;;;;;17.55;11.18;;;;;;;4.71;60.78;94222.16;5083625;28;20530;-34
2022/10/30 00:29:29;;;;;;;18.42;10.60;;;;;;;4.49;61.30;94222.81;5083280;28;20028;-34
2022/10/30 00:31:55;;;;;;;17.17;11.10;;;;;;;4.61;61.86;94222.38;5084179;28;20031;-34
2022/10/30 00:34:20;;;;;;;20.50;11.85;;;;;;;4.63;61.63;94221.16;5083897;28;20035;-34
2022/10/30 00:36:46;;;;;;;18.88;11.30;;;;;;;4.61;61.79;94211.44;5086614;28;20028;-34
2022/10/30 00:39:11;;;;;;;18.23;11.40;;;;;;;4.68;60.99;94214.97;5079947;28;20523;-34
2022/10/30 00:41:38;;;;;;;17.40;9.63;;;;;;;4.48;61.39;94210.41;5078404;28;20044;-34
2022/10/30 00:44:31;;;;;;;12.50;7.45;;;;;;;4.33;62.12;94201.66;5081096;28;20054;-34
2022/10/30 00:46:58;;;;;;;17.48;9.13;;;;;;;4.37;62.39;94202.91;5086193;28;20107;-34
2022/10/30 00:49:23;;;;;;;14.70;9.13;;;;;;;4.37;61.84;94183.78;5084383;28;20024;-34
2022/10/30 00:51:52;;;;;;;13.93;8.90;;;;;;;4.48;62.08;94205.66;5068528;28;20028;-34
2022/10/30 00:54:18;;;;;;;22.67;13.50;;;;;;;4.32;61.89;94173.56;5085249;28;20028;-34
2022/10/30 00:56:44;;;;;;;29.15;19.73;;;;;;;4.40;62.40;94196.44;5086112;28;20084;-34
2022/10/30 00:59:13;;;;;;;34.13;16.90;;;;;;;4.13;64.11;94196.31;5069645;28;20439;-35
2022/10/30 01:01:39;;;;;;;;;;;;;;;4.00;64.73;94188.56;5081281;28;20016;-34
2022/10/30 01:04:05;;;;;;;19.75;11.32;;;;;;;3.85;65.16;94177.03;5087485;28;19918;-34
2022/10/30 01:06:33;;;;;;;15.90;9.55;;;;;;;3.96;65.07;94179.84;5071642;28;20016;-34
2022/10/30 01:08:59;;;;;;;14.75;9.32;;;;;;;3.83;64.87;94174.06;5072483;28;20026;-34
2022/10/30 01:11:24;;;;;;;15.48;9.77;;;;;;;3.77;65.15;94175.97;5062688;28;20095;-34
2022/10/30 01:13:52;;;;;;;15.63;9.82;;;;;;;3.91;64.96;94179.78;5078756;28;20482;-35
2022/10/30 01:16:42;;;;;;;17.50;9.75;;;;;;;4.02;64.34;94180.63;5064441;28;20032;-35
2022/10/30 01:19:25;;;;;;;10.75;7.82;;;;;;;4.16;63.58;94171.47;5080965;28;20531;-34
2022/10/30 01:22:21;;;;;;;21.48;11.85;;;;;;;4.08;63.41;94173.19;5089294;28;20024;-35
2022/10/30 01:25:11;;;;;;;22.42;12.75;;;;;;;3.66;64.89;94171.19;5083365;28;20068;-35
2022/10/30 01:27:55;;;;;;;18.83;10.77;;;;;;;3.37;65.66;94170.75;5083554;28;20024;-34
2022/10/30 01:30:38;;;;;;;18.10;10.93;;;;;;;3.80;64.48;94162.09;5085913;28;20055;-35
2022/10/30 01:33:16;;;;;;;17.83;10.88;;;;;;;3.88;64.11;94167.84;5087911;28;20023;-34
2022/10/30 01:36:05;;;;;;;19.48;11.85;;;;;;;3.82;64.16;94161.63;5070778;28;20046;-34
2022/10/30 01:38:36;;;;;;;20.25;12.05;;;;;;;3.69;64.73;94162.03;5072428;28;20497;-36
2022/10/30 01:41:01;;;;;;;16.27;10.02;;;;;;;3.74;64.27;94153.16;5086375;28;20091;-34
2022/10/30 01:43:27;;;;;;;16.38;9.55;;;;;;;3.61;63.54;94147.34;5080738;28;20047;-34
2022/10/30 01:46:15;;;;;;;14.32;8.38;;;;;;;3.34;65.13;94147.88;5081366;28;20135;-34
2022/10/30 01:49:06;;;;;;;12.73;7.57;;;;;;;3.76;64.19;94147.19;5042566;28;20040;-34
2022/10/30 01:51:34;;;;;;;15.55;8.55;;;;;;;3.89;63.81;94144.03;5080616;28;20038;-34
2022/10/30 01:54:07;;;;;;;15.52;8.30;;;;;;;3.91;63.55;94138.81;5067356;28;20447;-34
2022/10/30 01:56:38;;;;;;;14.00;7.90;;;;;;;3.94;63.41;94135.13;5082298;28;20024;-34
2022/10/30 01:59:21;;;;;;;10.65;7.80;;;;;;;4.05;63.36;94133.16;5083682;28;20107;-34
2022/10/30 02:01:48;;;;;;;19.50;11.00;;;;;;;3.84;63.92;94123.63;5088252;28;20495;-34
2022/10/30 02:04:13;;;;;;;15.60;9.52;;;;;;;3.79;64.23;94141.47;5067849;28;20020;-34
2022/10/30 02:06:39;;;;;;;16.40;9.93;;;;;;;3.55;64.19;94143.09;5060745;28;20031;-34
2022/10/30 02:09:05;;;;;;;10.80;8.02;;;;;;;3.31;64.93;94139.94;5067913;28;20024;-34
2022/10/30 02:11:31;;;;;;;14.45;8.82;;;;;;;3.33;65.30;94142.94;5068174;28;20047;-34
2022/10/30 02:13:57;;;;;;;12.13;9.25;;;;;;;3.33;64.82;94138.22;5064994;28;20028;-34
2022/10/30 02:16:23;;;;;;;21.88;10.43;;;;;;;2.93;65.95;94130.94;5064580;28;20020;-35
2022/10/30 02:18:48;;;;;;;15.70;10.82;;;;;;;3.08;66.50;94139.00;5067653;28;20093;-35
2022/10/30 02:21:14;;;;;;;12.55;7.88;;;;;;;3.12;65.87;94131.34;5083031;28;20024;-35
2022/10/30 02:23:39;;;;;;;11.25;8.65;;;;;;;3.27;64.91;94134.69;5070936;28;20024;-35
2022/10/30 02:26:05;;;;;;;13.85;9.02;;;;;;;3.19;64.92;94130.16;5081785;28;20029;-34
2022/10/30 02:28:30;;;;;;;13.48;10.15;;;;;;;3.43;64.45;94130.56;5084146;28;20483;-35
2022/10/30 02:30:56;;;;;;;14.32;9.35;;;;;;;3.48;64.28;94133.38;5083235;28;20138;-34
2022/10/30 02:33:23;;;;;;;15.27;9.55;;;;;;;3.37;64.38;94133.28;5079903;28;20032;-34
2022/10/30 02:35:49;;;;;;;18.75;9.88;;;;;;;3.18;64.75;94125.94;5081023;28;20389;-34
2022/10/30 02:38:14;;;;;;;24.63;13.57;;;;;;;3.21;65.23;94135.88;5087205;28;20050;-34
2022/10/30 02:40:40;;;;;;;20.08;12.55;;;;;;;3.29;64.89;94126.75;5075635;28;20021;-34
2022/10/30 02:43:05;;;;;;;15.40;9.43;;;;;;;3.24;64.66;94132.19;5085250;28;20047;-34
2022/10/30 02:45:30;;;;;;;12.43;8.30;;;;;;;3.15;65.24;94140.53;5089790;28;20054;-34
2022/10/30 02:47:58;;;;;;;14.00;8.90;;;;;;;3.11;65.17;94142.75;5089815;28;20077;-34
2022/10/30 02:50:23;;;;;;;15.57;10.13;;;;;;;3.15;65.63;94130.38;5082960;28;20023;-34
2022/10/30 02:52:49;;;;;;;22.05;13.02;;;;;;;3.15;66.11;94138.56;5088888;28;20498;-34
2022/10/30 02:55:14;;;;;;;18.75;10.38;;;;;;;3.08;66.49;94133.53;5081456;28;20476;-34
2022/10/30 02:57:41;;;;;;;21.35;11.60;;;;;;;3.14;66.44;94141.78;5083687;28;20024;-34
2022/10/30 03:00:06;;;;;;;15.52;9.70;;;;;;;3.13;65.62;94129.38;5088588;28;20028;-34
2022/10/30 03:02:32;;;;;;;16.38;9.65;;;;;;;3.11;65.95;94134.56;5088842;28;20027;-34
2022/10/30 03:04:57;;;;;;;17.73;10.88;;;;;;;3.09;65.89;94137.78;5085651;28;20018;-34
2022/10/30 03:07:23;;;;;;;17.17;10.40;;;;;;;2.90;65.81;94123.00;5089008;28;20035;-34
2022/10/30 03:09:48;;;;;;;16.70;8.57;;;;;;;2.87;66.40;94141.06;5082716;28;20032;-34
2022/10/30 03:12:14;;;;;;;15.40;8.35;;;;;;;3.12;66.35;94134.06;5086465;28;20024;-34
2022/10/30 03:14:39;;;;;;;17.15;9.23;;;;;;;3.22;65.22;94135.41;5084022;28;20028;-34
2022/10/30 03:17:04;;;;;;;18.15;9.90;;;;;;;3.17;65.56;94143.53;5081004;28;20055;-34
2022/10/30 03:19:30;;;;;;;15.52;10.27;;;;;;;3.17;65.37;94141.56;5085848;28;20024;-34
2022/10/30 03:21:56;;;;;;;16.85;9.23;;;;;;;3.09;65.68;94137.78;5085503;28;20024;-34
2022/10/30 03:24:21;;;;;;;18.83;11.05;;;;;;;3.08;65.63;94147.19;5081389;28;20016;-35
2022/10/30 03:26:47;;;;;;;17.90;9.55;;;;;;;2.99;65.19;94137.19;5085965;28;20492;-34
2022/10/30 03:29:12;;;;;;;19.13;11.25;;;;;;;3.03;65.24;94142.44;5079391;28;20488;-34
2022/10/30 03:31:37;;;;;;;19.00;11.38;;;;;;;3.01;65.75;94144.91;5082866;28;20054;-34
2022/10/30 03:34:03;;;;;;;21.08;12.85;;;;;;;3.00;65.91;94159.75;5084103;28;20475;-34
2022/10/30 03:36:28;;;;;;;24.27;14.40;;;;;;;2.99;66.16;94144.63;5084175;28;20039;-34
2022/10/30 03:38:54;;;;;;;26.90;13.88;;;;;;;2.95;66.65;94150.28;5089943;28;20392;-34
2022/10/30 03:41:19;;;;;;;36.70;19.25;;;;;;;2.95;66.33;94152.28;5073555;28;20028;-34
2022/10/30 03:43:44;;;;;;;41.75;21.17;;;;;;;2.94;67.31;94145.34;5089475;28;20043;-34
2022/10/30 03:46:10;;;;;;;33.17;19.88;;;;;;;3.01;66.38;94142.19;5089235;28;20019;-34
2022/10/30 03:48:35;;;;;;;42.60;20.75;;;;;;;3.09;67.16;94148.69;5083927;28;20025;-34
2022/10/30 03:51:01;;;;;;;36.38;19.38;;;;;;;2.95;67.92;94152.28;5086841;28;20510;-35
2022/10/30 03:53:28;;;;;;;34.17;18.92;;;;;;;2.84;68.01;94147.47;5090016;28;20020;-34
2022/10/30 03:55:58;;;;;;;34.42;19.63;;;;;;;3.01;67.67;94148.38;5084640;28;20047;-34
2022/10/30 03:58:24;;;;;;;26.20;14.50;;;;;;;2.86;67.67;94152.44;5089112;28;20047;-34
2022/10/30 04:00:49;;;;;;;36.08;19.40;;;;;;;2.97;67.34;94152.53;5087554;28;20024;-34
2022/10/30 04:03:15;;;;;;;30.52;17.55;;;;;;;2.87;67.97;94167.56;5091545;28;20016;-34
2022/10/30 04:05:40;;;;;;;28.27;17.08;;;;;;;2.91;67.77;94152.50;5091867;28;20032;-34
2022/10/30 04:08:11;;;;;;;36.58;20.55;;;;;;;3.04;67.85;94152.88;5087128;28;20027;-34
2022/10/30 04:10:36;;;;;;;43.13;20.73;;;;;;;3.05;67.46;94156.34;5086840;28;20032;-34
2022/10/30 04:13:06;;;;;;;55.70;24.67;;;;;;;3.02;67.20;94163.50;5085179;28;20025;-34
2022/10/30 04:15:32;;;;;;;86.10;41.55;;;;;;;3.02;67.17;94147.16;5079290;28;20103;-34
2022/10/30 04:17:57;;;;;;;71.63;36.40;;;;;;;2.95;67.98;94155.00;5082970;28;20401;-34
2022/10/30 04:20:24;;;;;;;75.43;33.17;;;;;;;2.91;69.04;94151.75;5087428;28;20035;-34
2022/10/30 04:22:55;;;;;;;68.50;27.38;;;;;;;3.12;69.25;94146.97;5085851;28;20024;-34
2022/10/30 04:25:21;;;;;;;55.50;27.95;;;;;;;3.16;68.50;94151.00;5082232;28;20028;-34
2022/10/30 04:27:48;;;;;;;55.25;26.90;;;;;;;3.17;67.94;94147.00;5086549;28;20487;-34
2022/10/30 04:30:14;;;;;;;58.40;28.90;;;;;;;3.14;69.21;94139.06;5069318;28;20043;-34
2022/10/30 04:32:50;;;;;;;48.53;26.00;;;;;;;3.00;69.31;94155.06;5082090;28;20052;-33
2022/10/30 04:35:17;;;;;;;86.80;34.47;;;;;;;2.86;69.76;94125.16;5087457;28;20020;-34
2022/10/30 04:37:54;;;;;;;50.20;27.02;;;;;;;2.94;70.26;94150.78;5082289;28;20655;-34
2022/10/30 04:40:20;;;;;;;65.43;29.02;;;;;;;2.98;69.62;94152.06;5082705;28;20031;-34
2022/10/30 04:42:46;;;;;;;72.97;26.00;;;;;;;2.81;70.70;94148.44;5081669;28;20057;-34
2022/10/30 04:45:11;;;;;;;84.15;27.90;;;;;;;2.82;72.05;94147.19;5077225;28;20103;-34
2022/10/30 04:47:37;;;;;;;64.35;24.05;;;;;;;2.81;72.84;94140.25;5079955;28;20042;-33
2022/10/30 04:50:03;;;;;;;60.83;25.17;;;;;;;2.62;72.70;94146.50;5082696;28;20028;-33
2022/10/30 04:52:28;;;;;;;79.18;25.60;;;;;;;2.76;72.56;94154.59;5079767;28;20039;-34
2022/10/30 04:54:53;;;;;;;54.15;23.45;;;;;;;2.87;70.98;94149.25;5084498;28;20028;-34
2022/10/30 04:57:19;;;;;;;82.30;23.52;;;;;;;2.70;71.77;94153.78;5082709;28;20039;-34
2022/10/30 04:59:44;;;;;;;48.55;20.58;;;;;;;2.90;71.21;94155.72;5080599;28;20023;-34
2022/10/30 05:02:10;;;;;;;58.10;20.02;;;;;;;2.70;70.89;94159.25;5080498;28;20027;-34
2022/10/30 05:04:35;;;;;;;106.20;33.00;;;;;;;2.72;71.03;94161.47;5076289;28;20492;-34
2022/10/30 05:07:02;;;;;;;54.53;23.95;;;;;;;2.80;70.58;94162.53;5080690;28;20028;-34
2022/10/30 05:09:28;;;;;;;51.20;27.02;;;;;;;2.78;70.15;94157.56;5077944;28;20024;-34
2022/10/30 05:11:54;;;;;;;42.78;25.25;;;;;;;2.90;70.04;94156.44;5081712;28;20052;-34
2022/10/30 05:14:19;;;;;;;53.15;29.98;;;;;;;2.69;69.69;94152.28;5083830;28;20098;-34
2022/10/30 05:16:45;;;;;;;41.17;23.80;;;;;;;2.59;70.74;94159.13;5075642;28;20031;-34
2022/10/30 05:19:10;;;;;;;52.03;25.73;;;;;;;2.74;70.51;94164.47;5088337;28;20058;-34
2022/10/30 05:21:35;;;;;;;100.85;43.78;;;;;;;2.88;69.77;94164.34;5090830;28;20020;-34
2022/10/30 05:24:01;;;;;;;104.35;50.60;;;;;;;2.65;70.94;94157.19;5087121;28;20480;-34
2022/10/30 05:26:27;;;;;;;251.48;110.20;;;;;;;2.50;71.85;94147.63;5080906;28;20091;-34
2022/10/30 05:28:52;;;;;;;115.47;57.10;;;;;;;2.86;70.94;94158.63;5084923;28;20023;-34
2022/10/30 05:31:18;;;;;;;118.35;53.80;;;;;;;2.94;70.77;94161.69;5080355;28;20500;-35
2022/10/30 05:33:43;;;;;;;93.07;42.60;;;;;;;2.84;70.78;94163.06;5085549;28;20154;-34
2022/10/30 05:36:09;;;;;;;63.40;27.90;;;;;;;3.01;70.60;94172.19;5082658;28;20028;-34
2022/10/30 05:38:34;;;;;;;64.88;30.42;;;;;;;2.95;70.88;94163.19;5082889;28;20035;-34
2022/10/30 05:40:59;;;;;;;85.25;25.88;;;;;;;3.02;70.96;94170.94;5088766;28;20232;-34
2022/10/30 05:43:25;;;;;;;93.93;24.02;;;;;;;2.92;71.80;94169.63;5085213;28;20134;-34
2022/10/30 05:45:50;;;;;;;68.00;19.55;;;;;;;3.14;71.77;94161.59;5079573;28;20032;-34
2022/10/30 05:48:16;;;;;;;64.80;23.17;;;;;;;2.88;72.09;94163.63;5080413;28;20020;-34
2022/10/30 05:50:41;;;;;;;46.53;21.65;;;;;;;2.96;73.13;94170.16;5085895;28;20208;-34
2022/10/30 05:53:08;;;;;;;50.30;23.25;;;;;;;3.19;72.46;94162.88;5072611;28;20528;-34
2022/10/30 05:55:33;;;;;;;62.83;26.58;;;;;;;3.20;72.44;94167.88;5082441;28;20516;-34
2022/10/30 05:58:49;;;;;;;39.03;23.00;;;;;;;3.51;71.16;94170.59;5034500;27;1473398;-35
2022/10/30 06:01:14;;;;;;;42.70;24.73;;;;;;;3.72;70.63;94171.25;5061805;28;20098;-34
2022/10/30 06:03:40;;;;;;;71.13;36.25;;;;;;;3.78;70.31;94167.31;5065288;28;20029;-34
2022/10/30 06:06:05;;;;;;;64.38;33.03;;;;;;;3.77;70.63;94167.78;5065573;28;20027;-34
2022/10/30 06:08:31;;;;;;;63.45;35.20;;;;;;;3.93;70.35;94167.16;5066900;28;20009;-35
2022/10/30 06:10:57;;;;;;;88.70;45.65;;;;;;;3.91;69.81;94169.63;5064044;28;20480;-35
2022/10/30 06:13:22;;;;;;;80.00;41.83;;;;;;;3.97;70.08;94169.63;5065982;28;20028;-35
2022/10/30 06:15:48;;;;;;;89.05;48.03;;;;;;;3.96;70.68;94163.44;5066331;28;20025;-35
2022/10/30 06:18:14;;;;;;;47.88;30.05;;;;;;;4.10;70.77;94162.50;5065823;28;20463;-35
2022/10/30 06:20:39;;;;;;;48.85;31.00;;;;;;;3.95;71.50;94161.94;5066208;28;20083;-35
2022/10/30 06:23:07;;;;;;;60.72;33.08;;;;;;;4.10;71.38;94159.03;5065605;28;20025;-35
2022/10/30 06:25:34;;;;;;;64.97;32.72;;;;;;;4.38;70.63;94157.16;5065637;28;20028;-34
2022/10/30 06:28:00;;;;;;;66.53;39.72;;;;;;;4.80;69.39;94154.31;5060454;28;20143;-34
2022/10/30 06:30:26;;;;;;;71.95;41.03;;;;;;;5.25;68.67;94152.38;5065321;28;20096;-35
2022/10/30 06:32:59;;;;;;;70.60;39.03;;;;;;;5.94;66.70;94147.88;5065404;28;20024;-35
2022/10/30 06:35:24;;;;;;;65.70;38.90;;;;;;;6.51;64.71;94141.69;5064450;28;20036;-34
2022/10/30 06:37:52;;;;;;;75.10;42.35;;;;;;;6.95;63.22;94154.47;5064336;28;20032;-35
2022/10/30 06:40:17;;;;;;;55.08;29.55;;;;;;;7.46;62.59;94154.34;5062913;28;20028;-35
2022/10/30 06:42:43;;;;;;;29.40;15.90;;;;;;;8.19;60.76;94157.16;5065145;28;20029;-35
2022/10/30 06:45:10;;;;;;;61.90;25.20;;;;;;;8.90;60.37;94152.13;5062382;28;20029;-35
2022/10/30 06:47:35;;;;;;;32.83;16.70;;;;;;;10.33;56.59;94154.59;5065644;28;20028;-35
2022/10/30 06:50:02;;;;;;;45.30;15.57;;;;;;;12.11;51.96;94151.47;5059181;28;20021;-35
2022/10/30 06:52:27;;;;;;;44.97;17.88;;;;;;;13.85;47.70;94149.53;5060652;28;20516;-35
2022/10/30 06:54:52;;;;;;;22.50;15.20;;;;;;;15.42;44.26;94136.66;5059836;28;20023;-36
2022/10/30 06:57:18;;;;;;;20.67;14.85;;;;;;;16.84;40.82;94141.78;5064455;28;20524;-36
2022/10/30 06:59:43;;;;;;;32.83;19.95;;;;;;;18.12;38.10;94133.84;5079175;28;20411;-35
2022/10/30 07:02:10;;;;;;;35.58;20.90;;;;;;;19.22;35.95;94135.88;5080169;28;20035;-36
2022/10/30 07:04:35;;;;;;;58.60;29.08;;;;;;;20.10;33.95;94132.34;5082299;28;20025;-36
2022/10/30 07:07:00;;;;;;;28.90;18.77;;;;;;;20.93;33.18;94131.06;5080797;28;20031;-36
2022/10/30 07:09:26;;;;;;;16.83;13.02;;;;;;;21.69;32.30;94126.94;5072972;28;20106;-36
2022/10/30 07:11:52;;;;;;;18.50;10.65;;;;;;;22.20;31.20;94135.75;5066906;28;20066;-37
2022/10/30 07:14:17;;;;;;;18.60;13.70;;;;;;;22.42;30.71;94132.22;5066903;28;20416;-36
2022/10/30 07:16:43;;;;;;;63.63;23.48;;;;;;;22.90;30.26;94139.31;5068593;28;20044;-36
2022/10/30 07:19:08;;;;;;;30.42;23.83;;;;;;;23.40;29.82;94138.75;5068770;28;20028;-36
2022/10/30 07:21:34;;;;;;;27.55;21.40;;;;;;;23.72;29.26;94140.56;5068695;28;20086;-36
2022/10/30 07:23:59;;;;;;;27.30;19.25;;;;;;;24.18;28.29;94126.25;5065039;28;20495;-36
2022/10/30 07:26:25;;;;;;;24.55;19.33;;;;;;;24.66;27.73;94125.28;5068231;28;20028;-37
2022/10/30 07:28:50;;;;;;;20.50;16.80;;;;;;;25.15;27.19;94131.38;5066862;28;20032;-36
2022/10/30 07:31:16;;;;;;;29.40;21.08;;;;;;;25.47;26.77;94121.72;5067057;28;20044;-37
2022/10/30 07:33:41;;;;;;;29.73;20.17;;;;;;;25.55;26.40;94127.78;5065592;28;20021;-35
2022/10/30 07:36:07;;;;;;;25.20;17.60;;;;;;;25.63;26.59;94114.03;5068086;28;20029;-34
2022/10/30 07:38:32;;;;;;;20.42;15.85;;;;;;;26.12;26.07;94115.00;5064778;28;20041;-34
2022/10/30 07:40:58;;;;;;;53.58;17.92;;;;;;;26.57;25.84;94120.63;5069394;28;20507;-34
2022/10/30 07:43:23;;;;;;;26.45;16.33;;;;;;;26.78;25.42;94125.84;5066162;28;20143;-35
2022/10/30 07:45:49;;;;;;;37.95;14.82;;;;;;;27.30;24.74;94118.16;5065988;28;20048;-34
2022/10/30 07:48:14;;;;;;;12.73;10.90;;;;;;;27.72;24.35;94128.47;5065573;28;20025;-34
2022/10/30 07:50:40;;;;;;;11.00;7.10;;;;;;;27.93;24.43;94122.22;5064779;28;20094;-34
2022/10/30 07:53:06;;;;;;;7.85;6.28;;;;;;;28.62;23.35;94122.09;5065531;28;20109;-34
2022/10/30 07:55:31;;;;;;;16.98;7.13;;;;;;;28.42;24.04;94122.03;5065041;28;20078;-34
2022/10/30 07:57:57;;;;;;;4.97;4.30;;;;;;;27.77;25.03;94122.31;5065211;28;20141;-34
2022/10/30 08:00:22;;;;;;;5.85;4.80;;;;;;;28.08;24.89;94115.75;5063301;28;20036;-34
2022/10/30 08:02:49;;;;;;;5.70;5.10;;;;;;;28.78;24.34;94112.06;5065081;28;20032;-34
2022/10/30 08:05:15;;;;;;;8.15;6.32;;;;;;;29.41;23.32;94108.63;5066822;28;20598;-34
2022/10/30 08:07:41;;;;;;;7.90;5.10;;;;;;;29.35;24.07;94106.28;5064025;28;20041;-34
2022/10/30 08:10:07;;;;;;;11.57;6.43;;;;;;;29.77;22.77;94101.31;5063734;28;20032;-34
2022/10/30 08:12:33;;;;;;;11.27;6.43;;;;;;;30.10;22.48;94097.41;5064248;28;20078;-34
2022/10/30 08:14:59;;;;;;;22.33;5.45;;;;;;;30.18;22.13;94100.50;5068478;28;20051;-34
2022/10/30 08:17:25;;;;;;;10.50;6.70;;;;;;;29.83;22.67;94098.69;5064549;28;20032;-35
2022/10/30 08:19:50;;;;;;;12.90;6.95;;;;;;;29.82;23.26;94094.38;5065687;28;20060;-34
2022/10/30 08:22:16;;;;;;;10.75;5.38;;;;;;;29.81;22.44;94090.06;5064669;28;20488;-34
2022/10/30 08:24:43;;;;;;;42.70;7.93;;;;;;;29.67;22.72;94090.31;5065729;28;20028;-34
2022/10/30 08:27:08;;;;;;;5.20;4.20;;;;;;;29.72;22.32;94082.63;5066544;28;20032;-35
2022/10/30 08:29:34;;;;;;;6.65;4.40;;;;;;;30.08;22.47;94094.50;5067856;28;20089;-34
2022/10/30 08:31:59;;;;;;;8.40;5.70;;;;;;;30.48;22.00;94090.78;5068220;28;20027;-34
2022/10/30 08:34:30;;;;;;;5.25;4.60;;;;;;;30.17;21.72;94094.06;5066971;28;20113;-34
2022/10/30 08:36:56;;;;;;;5.60;3.90;;;;;;;29.93;22.36;94094.03;5066348;28;20059;-34
2022/10/30 08:39:21;;;;;;;10.15;4.85;;;;;;;30.14;21.88;94086.88;5064845;28;20060;-34
2022/10/30 08:41:47;;;;;;;8.90;5.03;;;;;;;30.37;21.94;94086.16;5065260;28;20029;-34
2022/10/30 08:44:12;;;;;;;5.43;4.13;;;;;;;30.42;20.97;94075.63;5065999;28;20029;-34
2022/10/30 08:46:38;;;;;;;7.60;5.40;;;;;;;30.40;21.41;94082.00;5063113;28;20028;-34
2022/10/30 08:49:03;;;;;;;6.10;4.28;;;;;;;30.16;21.38;94057.72;5068298;28;20032;-34
2022/10/30 08:51:32;;;;;;;4.15;3.75;;;;;;;30.10;21.31;94078.19;5071151;28;20025;-34
2022/10/30 08:53:58;;;;;;;4.68;3.63;;;;;;;29.46;22.03;94079.63;5066288;28;20568;-34
2022/10/30 08:56:24;;;;;;;5.35;3.78;;;;;;;29.74;21.87;94080.59;5069713;28;20037;-34
2022/10/30 08:58:50;;;;;;;4.45;3.10;;;;;;;29.67;22.00;94070.38;5070184;28;20132;-34
2022/10/30 09:01:16;;;;;;;4.13;2.90;;;;;;;29.92;21.71;94063.38;5061974;28;20029;-34
2022/10/30 09:03:43;;;;;;;5.75;4.30;;;;;;;29.87;21.50;94064.63;5065596;28;20416;-34
2022/10/30 09:06:09;;;;;;;3.38;3.00;;;;;;;29.49;21.74;94058.41;5067140;28;20028;-34
2022/10/30 09:08:34;;;;;;;4.80;3.53;;;;;;;29.91;21.96;94061.91;5070336;28;20093;-34
2022/10/30 09:11:00;;;;;;;3.25;2.95;;;;;;;30.32;21.57;94063.94;5070468;28;20040;-34
2022/10/30 09:13:26;;;;;;;3.38;3.00;;;;;;;30.30;21.13;94064.56;5063795;28;20028;-34
2022/10/30 09:15:51;;;;;;;8.98;3.92;;;;;;;30.68;21.07;94062.88;5070456;28;20031;-34
2022/10/30 09:18:17;;;;;;;3.15;2.47;;;;;;;30.95;19.69;94050.09;5070247;28;20110;-34
2022/10/30 09:20:42;;;;;;;24.60;5.05;;;;;;;31.18;20.31;94057.88;5070334;28;20029;-34
2022/10/30 09:23:08;;;;;;;17.48;4.68;;;;;;;31.25;20.06;94061.63;5065088;28;20051;-34
2022/10/30 09:25:33;;;;;;;3.25;2.40;;;;;;;30.75;20.18;94057.34;5065374;28;20587;-34
2022/10/30 09:27:59;;;;;;;3.85;2.78;;;;;;;30.32;21.20;94053.25;5062834;28;20032;-34
2022/10/30 09:30:25;;;;;;;9.82;3.75;;;;;;;30.61;20.80;94047.00;5064183;28;20032;-34
2022/10/30 09:32:58;;;;;;;6.78;4.72;;;;;;;30.75;20.70;94040.25;5066860;28;20525;-34
2022/10/30 09:35:24;;;;;;;24.08;4.60;;;;;;;30.80;20.68;94042.53;5064447;28;20091;-34
2022/10/30 09:37:50;;;;;;;21.15;10.00;;;;;;;30.70;21.33;94039.41;5061422;28;20116;-35
2022/10/30 09:40:23;;;;;;;13.35;8.43;;;;;;;30.96;20.97;94025.88;5053541;28;20108;-34
2022/10/30 09:42:50;;;;;;;6.07;4.55;;;;;;;31.08;19.90;94031.19;5053466;28;20044;-34
2022/10/30 09:45:30;;;;;;;8.13;5.80;;;;;;;30.67;20.36;94021.50;5034473;28;21732;-34
2022/10/30 09:48:30;;;;;;;8.25;5.28;;;;;;;30.96;20.44;94025.16;5052575;28;20683;-34
2022/10/30 09:51:04;;;;;;;8.98;5.07;;;;;;;30.76;20.66;94010.31;5058486;28;20032;-34
2022/10/30 09:53:37;;;;;;;5.85;2.50;;;;;;;30.62;21.22;94004.97;5064230;28;20036;-34
2022/10/30 09:56:17;;;;;;;5.13;3.40;;;;;;;30.69;21.02;94003.72;5062696;28;20047;-34
2022/10/30 09:59:03;;;;;;;7.38;5.38;;;;;;;30.59;21.51;93997.75;5043175;28;20588;-34
2022/10/30 10:01:48;;;;;;;6.75;5.13;;;;;;;30.71;21.26;93995.22;5059614;28;20051;-34
2022/10/30 10:04:38;;;;;;;7.35;6.25;;;;;;;31.21;20.88;93988.03;5043995;28;20091;-34
2022/10/30 10:07:13;;;;;;;5.53;3.78;;;;;;;31.05;20.99;93992.59;5056372;28;20020;-34
2022/10/30 10:09:40;;;;;;;6.13;3.47;;;;;;;31.48;20.32;93988.72;5055680;28;20036;-34
2022/10/30 10:12:34;;;;;;;13.48;4.43;;;;;;;31.47;20.43;93990.84;5038720;28;20039;-34
2022/10/30 10:15:03;;;;;;;4.35;3.40;;;;;;;31.02;20.70;93982.53;5043637;28;20045;-35
2022/10/30 10:17:38;;;;;;;9.82;3.22;;;;;;;30.61;21.44;93978.59;5037905;28;20040;-34
2022/10/30 10:20:04;;;;;;;4.03;3.20;;;;;;;31.12;20.81;93979.97;5041176;28;20033;-34
2022/10/30 10:22:49;;;;;;;6.30;3.25;;;;;;;31.05;19.84;93978.34;5061731;28;20166;-34
2022/10/30 10:25:17;;;;;;;5.28;2.90;;;;;;;31.08;20.14;93968.44;5040362;28;20032;-34
2022/10/30 10:27:46;;;;;;;5.47;2.70;;;;;;;31.22;20.07;93969.53;5023087;28;20448;-34
2022/10/30 10:30:23;;;;;;;6.72;3.53;;;;;;;30.99;20.92;93972.50;5058370;28;20033;-34
2022/10/30 10:32:59;;;;;;;5.87;2.60;;;;;;;31.05;20.87;93959.13;5058602;28;20043;-34
2022/10/30 10:35:36;;;;;;;4.30;2.92;;;;;;;31.04;20.58;93951.22;5062356;28;20036;-34
2022/10/30 10:38:20;;;;;;;3.63;2.53;;;;;;;31.16;19.94;93955.13;5057065;28;20742;-34
2022/10/30 10:40:59;;;;;;;3.47;3.03;;;;;;;31.17;19.67;93950.13;5067298;28;20040;-34
2022/10/30 10:43:57;;;;;;;7.75;3.35;;;;;;;30.95;20.09;93943.88;5062065;28;20091;-34
2022/10/30 10:46:36;;;;;;;3.92;3.20;;;;;;;31.28;20.43;93948.97;5046445;28;20032;-34
2022/10/30 10:49:04;;;;;;;3.88;2.75;;;;;;;31.39;20.14;93951.41;5061856;28;20063;-34
2022/10/30 10:51:34;;;;;;;3.72;2.95;;;;;;;31.14;20.66;93949.38;5058315;28;20061;-34
2022/10/30 10:54:07;;;;;;;6.53;3.70;;;;;;;30.99;20.30;93938.97;5043886;28;20116;-34
2022/10/30 10:56:39;;;;;;;4.55;3.13;;;;;;;31.01;20.03;93952.56;5038934;28;20143;-34
2022/10/30 10:59:31;;;;;;;3.28;2.30;;;;;;;30.73;20.71;93946.84;5054405;28;20057;-34
2022/10/30 11:02:51;;;;;;;5.03;3.00;;;;;;;30.78;20.24;93942.69;5037262;28;20028;-34
2022/10/30 11:05:21;;;;;;;4.53;2.83;;;;;;;30.81;20.42;93934.91;4960894;28;20495;-34
2022/10/30 11:07:48;;;;;;;4.57;3.28;;;;;;;31.05;20.60;93927.75;5038548;28;20028;-35
2022/10/30 11:10:16;;;;;;;4.10;2.90;;;;;;;31.13;20.65;93924.34;5058525;28;20028;-35
2022/10/30 11:12:42;;;;;;;3.35;3.00;;;;;;;30.73;20.20;93921.88;5062409;28;21704;-35
2022/10/30 11:15:56;;;;;;;3.22;2.50;;;;;;;31.09;20.04;93919.28;5059213;28;20037;-35
2022/10/30 11:18:22;;;;;;;4.43;3.55;;;;;;;31.00;20.54;93914.78;4947456;28;20035;-35
2022/10/30 11:20:58;;;;;;;3.35;2.55;;;;;;;30.95;20.76;93907.50;5048419;28;20090;-35
2022/10/30 11:23:37;;;;;;;4.63;2.88;;;;;;;30.94;20.64;93908.91;5040320;28;20024;-35
2022/10/30 11:26:03;;;;;;;;;;;;;;;30.75;20.52;93903.41;5056876;28;20124;-34
2022/10/30 11:28:41;;;;;;;7.55;3.63;;;;;;;30.81;20.93;93895.00;5063406;28;20010;-34
2022/10/30 11:31:16;;;;;;;5.43;3.75;;;;;;;30.58;21.01;93888.00;5067932;28;20584;-34
2022/10/30 11:33:42;;;;;;;3.85;2.97;;;;;;;30.73;20.80;93893.38;5068584;28;20025;-35
2022/10/30 11:36:08;;;;;;;6.53;3.17;;;;;;;30.50;20.96;93882.06;5065485;28;20515;-35